Data for 03/13/2013

Time Sea-Level Adjusted Pressure Absolute Pressure Temperature Relative Humidity Dew Point   
(mb) (inHg) (mb) (inHg) (C) (F) (%) (C) (F)
00:05 1021 30.15 850 25.1 6.7 44 47 -3.9 25
00:10 1021 30.15 850 25.1 6.6 43.9 47 -3.9 24.9
00:15 1021 30.15 850 25.1 6.6 43.9 46 -4.1 24.7
00:20 1021 30.15 850 25.1 6.7 44 45 -4.4 24.1
00:25 1021 30.15 850 25.1 7 44.5 45 -4.3 24.3
00:30 1021 30.15 850 25.1 7.1 44.8 43 -4.6 23.8
00:35 1021 30.15 850 25.1 7.3 45.1 43 -4.4 24
00:40 1021 30.15 850 25.1 7.3 45.2 43 -4.3 24.2
00:45 1021 30.15 850 25.1 7.2 45 44 -4.2 24.4
00:50 1021 30.15 850 25.1 7.3 45.1 42 -4.8 23.4
00:55 1021 30.15 850 25.1 7.6 45.7 41 -4.8 23.4
01:00 1021 30.15 850 25.1 7.8 46 41 -4.6 23.7
01:05 1021 30.15 850 25.1 7.8 46 41 -4.7 23.6
01:10 1021 30.15 850 25.1 7.8 46 41 -4.6 23.7
01:15 1021 30.15 850 25.1 7.7 45.9 42 -4.5 23.9
01:20 1021 30.15 850 25.1 7.7 45.8 42 -4.5 23.8
01:25 1021 30.15 850 25.1 7.7 45.9 41 -4.7 23.6
01:30 1021 30.15 850 25.1 7.7 45.9 41 -4.6 23.8
01:35 1021 30.15 850 25.1 7.8 46 41 -4.7 23.6
01:40 1021 30.15 850 25.1 7.8 46 42 -4.4 24.2
01:45 1021 30.15 850 25.1 7.5 45.4 43 -4.4 24.2
01:50 1021 30.15 851 25.13 7.4 45.2 43 -4.4 24
01:55 1021 30.15 851 25.13 7.4 45.4 42 -4.7 23.6
02:00 1021 30.15 850 25.1 7.5 45.6 42 -4.7 23.6
02:05 1021 30.15 850 25.1 7.6 45.7 41 -4.8 23.4
02:10 1021 30.15 850 25.1 7.5 45.5 42 -4.5 23.9
02:15 1021 30.15 850 25.1 7.6 45.6 41 -4.7 23.5
02:20 1021 30.15 850 25.1 7.6 45.6 42 -4.4 24.1
02:25 1021 30.15 850 25.1 7.6 45.6 40 -5.2 22.7
02:30 1021 30.15 850 25.1 7.9 46.2 40 -5 23
02:35 1021 30.15 850 25.1 7.9 46.2 39 -5.1 22.8
02:40 1021 30.15 850 25.1 8 46.3 40 -4.8 23.4
02:45 1021 30.15 850 25.1 7.7 45.9 41 -4.8 23.4
02:50 1021 30.15 850 25.1 7.6 45.8 40 -4.9 23.1
02:55 1021 30.15 850 25.1 7.6 45.6 41 -4.7 23.5
03:00 1021 30.15 850 25.1 7.4 45.2 42 -4.5 23.8
03:05 1021 30.15 850 25.1 7.2 44.9 43 -4.5 23.9
03:10 1021 30.15 850 25.1 7 44.6 43 -4.6 23.7
03:15 1021 30.15 850 25.1 6.9 44.5 44 -4.6 23.8
03:20 1021 30.15 850 25.1 6.9 44.4 45 -4.4 24.2
03:25 1021 30.15 850 25.1 6.7 44.1 45 -4.4 24
03:30 1020 30.12 850 25.1 6.6 43.9 45 -4.6 23.7
03:35 1021 30.15 850 25.1 6.6 43.8 46 -4.3 24.2
03:40 1021 30.15 850 25.1 6.4 43.5 46 -4.3 24.3
03:45 1020 30.12 850 25.1 6.1 43.1 47 -4.3 24.2
03:50 1020 30.12 850 25.1 6.2 43.2 46 -4.6 23.7
03:55 1021 30.15 850 25.1 6.5 43.8 44 -4.7 23.5
04:00 1021 30.15 850 25.1 6.7 44.1 45 -4.5 23.9
04:05 1021 30.15 850 25.1 6.5 43.7 47 -4 24.8
04:10 1021 30.15 850 25.1 6.1 42.9 49 -3.9 25
04:15 1021 30.15 850 25.1 5.6 42.1 49 -4.3 24.3
04:20 1021 30.15 850 25.1 5.6 42.1 48 -4.4 24
04:25 1021 30.15 850 25.1 5.8 42.4 48 -4.4 24
04:30 1021 30.15 850 25.1 6 42.8 45 -5.1 22.8
04:35 1021 30.15 850 25.1 6.4 43.5 44 -4.9 23.2
04:40 1021 30.15 850 25.1 6.4 43.6 44 -4.9 23.1
04:45 1021 30.15 850 25.1 6.7 44 43 -5 22.9
04:50 1021 30.15 850 25.1 6.6 44 45 -4.5 23.8
04:55 1021 30.15 851 25.13 6.3 43.3 45 -4.7 23.6
05:00 1021 30.15 851 25.13 6.2 43.2 45 -4.7 23.6
05:05 1021 30.15 850 25.1 6.2 43.2 46 -4.6 23.8
05:10 1021 30.15 850 25.1 6.2 43.2 45 -4.8 23.3
05:15 1021 30.15 850 25.1 6.3 43.4 44 -5 23.1
05:20 1021 30.15 850 25.1 6.1 43 46 -4.6 23.6
05:25 1021 30.15 850 25.1 5.9 42.6 46 -4.7 23.5
05:30 1021 30.15 850 25.1 6.2 43.2 44 -5.3 22.5
05:35 1021 30.15 850 25.1 6.5 43.8 43 -5.1 22.7
05:40 1021 30.15 850 25.1 6.8 44.3 43 -5 23
05:45 1021 30.15 850 25.1 6.9 44.5 42 -5 23.1
05:50 1021 30.15 850 25.1 6.7 44.1 42 -5.1 22.8
05:55 1021 30.15 850 25.1 7 44.5 41 -5.4 22.3
06:00 1021 30.15 850 25.1 7.1 44.8 42 -4.8 23.4
06:05 1021 30.15 850 25.1 6.6 43.9 45 -4.6 23.7
06:10 1021 30.15 850 25.1 6.3 43.4 44 -4.9 23.1
06:15 1021 30.15 850 25.1 6.3 43.3 46 -4.6 23.7
06:20 1021 30.15 850 25.1 6.1 43 45 -4.8 23.3
06:25 1021 30.15 850 25.1 6 42.8 47 -4.6 23.8
06:30 1021 30.15 850 25.1 5.7 42.3 47 -4.6 23.7
06:35 1021 30.15 850 25.1 5.9 42.5 45 -5 22.9
06:40 1021 30.15 850 25.1 6.3 43.3 43 -5.3 22.4
06:45 1021 30.15 850 25.1 6.5 43.8 42 -5.4 22.3
06:50 1021 30.15 850 25.1 6.2 43.1 49 -3.8 25.2
06:55 1021 30.15 850 25.1 5 41 52 -4.1 24.7
07:00 1021 30.15 850 25.1 5 41 49 -4.9 23.1
07:05 1021 30.15 851 25.13 5.2 41.4 51 -4.2 24.5
07:10 1021 30.15 851 25.13 4.8 40.6 52 -4.1 24.5
07:15 1021 30.15 851 25.13 4.6 40.2 52 -4.4 24
07:20 1022 30.18 851 25.13 4.6 40.4 53 -4.2 24.4
07:25 1022 30.18 851 25.13 4.6 40.4 53 -4.2 24.4
07:30 1022 30.18 851 25.13 4.7 40.5 52 -4.4 24.1
07:35 1022 30.18 851 25.13 4.9 40.9 49 -4.9 23.3
07:40 1022 30.18 851 25.13 5.6 42 47 -5 23.1
07:45 1022 30.18 851 25.13 6.1 43.1 45 -4.9 23.3
07:50 1022 30.18 851 25.13 6.1 43 48 -4.2 24.5
07:55 1022 30.18 851 25.13 6.2 43.2 47 -4.2 24.5
08:00 1022 30.18 851 25.13 6.3 43.3 43 -5.4 22.4
08:05 1022 30.18 851 25.13 7 44.5 42 -5 23
08:10 1022 30.18 851 25.13 7.3 45.1 44 -4.3 24.2
08:15 1022 30.18 851 25.13 7.2 44.9 38 -6 21.1
08:20 1022 30.18 851 25.13 7.9 46.2 36 -6.3 20.7
08:25 1022 30.18 851 25.13 8.2 46.7 37 -5.8 21.6
08:30 1022 30.18 851 25.13 8 46.5 38 -5.5 22.1
08:35 1022 30.18 851 25.13 8 46.4 37 -5.6 21.8
08:40 1022 30.18 851 25.13 8.3 46.9 37 -5.7 21.8
08:45 1022 30.18 851 25.13 8.7 47.6 35 -5.9 21.5
08:50 1022 30.18 851 25.13 9.3 48.7 35 -5.2 22.6
08:55 1022 30.18 851 25.13 9.7 49.5 37 -4.1 24.6
09:00 1022 30.18 851 25.13 9.5 49 38 -4.1 24.7
09:05 1022 30.18 851 25.13 9 48.1 39 -4.3 24.3
09:10 1022 30.18 851 25.13 9 48.1 39 -4.3 24.3
09:15 1022 30.18 851 25.13 9.2 48.5 37 -4.9 23.2
09:20 1022 30.18 851 25.13 9.6 49.3 33 -5.7 21.7
09:25 1022 30.18 851 25.13 9.9 49.9 33 -5.7 21.8
09:30 1022 30.18 851 25.13 10 50 32 -6 21.2
09:35 1022 30.18 851 25.13 10.8 51.5 29 -6.3 20.7
09:40 1022 30.18 852 25.16 11.1 52 30 -5.7 21.8
09:45 1022 30.18 852 25.16 10.8 51.5 31 -5.8 21.6
09:50 1022 30.18 852 25.16 10.9 51.7 30 -6 21.2
09:55 1022 30.18 852 25.16 10.9 51.6 29 -6.3 20.7
10:00 1022 30.18 852 25.16 10.7 51.2 30 -6.2 20.9
10:05 1022 30.18 852 25.16 11.3 52.3 29 -6 21.2
10:10 1022 30.18 852 25.16 11.3 52.3 30 -5.6 22
10:15 1022 30.18 852 25.16 11.5 52.6 29 -5.8 21.6
10:20 1022 30.18 852 25.16 11.6 52.8 30 -5.5 22.2
10:25 1022 30.18 851 25.13 11.9 53.4 29 -5.4 22.4
10:30 1022 30.18 851 25.13 12.2 53.9 29 -5.4 22.2
10:35 1022 30.18 851 25.13 12.4 54.3 29 -5.3 22.5
10:40 1022 30.18 851 25.13 12.6 54.7 28 -5.1 22.8
10:45 1022 30.18 851 25.13 12.9 55.2 28 -4.9 23.1
10:50 1022 30.18 851 25.13 13.1 55.5 28 -4.9 23.2
10:55 1022 30.18 852 25.16 12.9 55.2 29 -4.7 23.5
11:00 1022 30.18 852 25.16 13.1 55.5 28 -4.8 23.3
11:05 1022 30.18 851 25.13 13.2 55.7 29 -4.2 24.4
11:10 1022 30.18 851 25.13 13.3 55.9 28 -4.7 23.6
11:15 1022 30.18 851 25.13 13.4 56.1 28 -4.6 23.7
11:20 1022 30.18 851 25.13 13.3 55.9 29 -4.4 24
11:25 1022 30.18 851 25.13 13.2 55.7 29 -4.3 24.3
11:30 1022 30.18 851 25.13 13 55.5 30 -4.2 24.4
11:35 1022 30.18 851 25.13 13.1 55.6 30 -3.8 25.1
11:40 1022 30.18 851 25.13 13.3 56 29 -4.1 24.5
11:45 1022 30.18 851 25.13 13.2 55.8 30 -3.9 25
11:50 1022 30.18 851 25.13 13.1 55.6 29 -4.3 24.3
11:55 1022 30.18 851 25.13 13.3 56 29 -4.4 24.1
12:00 1022 30.18 851 25.13 13.6 56.5 28 -4.5 23.8
12:05 1022 30.18 851 25.13 13.3 55.9 29 -4.5 23.9
12:10 1022 30.18 851 25.13 13.3 56 28 -5 23.1
12:15 1022 30.18 851 25.13 13.4 56.1 28 -4.8 23.4
12:20 1022 30.18 851 25.13 13.3 55.9 28 -4.8 23.4
12:25 1022 30.18 851 25.13 13.3 55.9 28 -4.8 23.3
12:30 1022 30.18 851 25.13 13.6 56.5 27 -5.2 22.7
12:35 1022 30.18 851 25.13 13.8 56.8 27 -5 23.1
12:40 1022 30.18 851 25.13 14 57.1 28 -4.4 24.1
12:45 1022 30.18 851 25.13 13.7 56.7 28 -4.3 24.2
12:50 1022 30.18 851 25.13 13.2 55.8 28 -4.7 23.5
12:55 1022 30.18 851 25.13 13.8 56.9 27 -4.8 23.3
13:00 1022 30.18 851 25.13 14.1 57.4 27 -4.6 23.7
13:05 1022 30.18 851 25.13 14.3 57.7 26 -5.1 22.9
13:10 1022 30.18 851 25.13 14.1 57.3 26 -5.3 22.4
13:15 1022 30.18 851 25.13 14.3 57.8 26 -5.1 22.9
13:20 1022 30.18 851 25.13 14.6 58.2 25 -5.4 22.3
13:25 1022 30.18 851 25.13 14.5 58.2 25 -5.4 22.3
13:30 1022 30.18 851 25.13 14.7 58.4 24 -5.5 22.1
13:35 1022 30.18 851 25.13 14.7 58.5 24 -5.5 22.2
13:40 1022 30.18 851 25.13 14.9 58.8 24 -5.6 21.9
13:45 1022 30.18 851 25.13 14.7 58.5 24 -5.4 22.3
13:50 1022 30.18 851 25.13 14.9 58.8 24 -5.2 22.7
13:55 1022 30.18 851 25.13 14.6 58.2 25 -5.4 22.3
14:00 1022 30.18 851 25.13 14.5 58 25 -5.1 22.8
14:05 1022 30.18 851 25.13 14.9 58.8 24 -5.3 22.5
14:10 1022 30.18 851 25.13 15 58.9 24 -5.5 22.2
14:15 1022 30.18 851 25.13 14.9 58.8 25 -5 23
14:20 1022 30.18 851 25.13 14.6 58.2 25 -5.1 22.9
14:25 1021 30.15 851 25.13 14.5 58.1 24 -5.5 22.1
14:30 1021 30.15 851 25.13 14.8 58.6 24 -5.6 21.9
14:35 1021 30.15 851 25.13 14.8 58.7 24 -5.4 22.3
14:40 1021 30.15 851 25.13 14.8 58.6 25 -4.8 23.3
14:45 1021 30.15 850 25.1 14.8 58.6 25 -5.2 22.6
14:50 1021 30.15 851 25.13 14.7 58.4 25 -5.2 22.6
14:55 1021 30.15 851 25.13 14.6 58.2 26 -4.6 23.7
15:00 1021 30.15 851 25.13 14.3 57.8 27 -4.3 24.3
15:05 1021 30.15 851 25.13 14.2 57.5 26 -5.2 22.7
15:10 1021 30.15 851 25.13 14.3 57.8 24 -5.7 21.7
15:15 1021 30.15 851 25.13 14.1 57.3 26 -5.2 22.6
15:20 1021 30.15 851 25.13 13.9 57 25 -5.7 21.8
15:25 1021 30.15 851 25.13 13.9 56.9 25 -5.7 21.7
15:30 1021 30.15 851 25.13 13.7 56.7 26 -5.6 21.9
15:35 1021 30.15 851 25.13 13.6 56.5 25 -5.8 21.6
15:40 1021 30.15 851 25.13 13.4 56.2 26 -5.7 21.8
15:45 1021 30.15 851 25.13 13.1 55.6 27 -5.5 22
15:50 1021 30.15 851 25.13 13 55.4 26 -5.8 21.5
15:55 1021 30.15 851 25.13 13 55.5 27 -5.6 21.9
16:00 1021 30.15 851 25.13 12.9 55.3 26 -6 21.2
16:05 1021 30.15 851 25.13 13 55.5 26 -5.9 21.3
16:10 1021 30.15 851 25.13 13 55.4 27 -5.5 22.1
16:15 1021 30.15 851 25.13 12.8 55 28 -5.4 22.2
16:20 1021 30.15 851 25.13 12.7 54.9 27 -5.8 21.5
16:25 1021 30.15 851 25.13 13.1 55.5 26 -5.9 21.4
16:30 1021 30.15 851 25.13 13.2 55.7 26 -5.9 21.3
16:35 1021 30.15 851 25.13 13.2 55.8 26 -5.6 22
16:40 1021 30.15 851 25.13 13.1 55.5 27 -5.3 22.4
16:45 1021 30.15 851 25.13 13 55.3 28 -5.1 22.9
16:50 1021 30.15 851 25.13 12.8 55.1 29 -4.7 23.6
16:55 1021 30.15 851 25.13 12.5 54.5 30 -4.4 24.1
17:00 1022 30.18 851 25.13 12.4 54.4 30 -4.6 23.8
17:05 1022 30.18 851 25.13 12.2 53.9 32 -3.9 24.9
17:10 1022 30.18 851 25.13 11.7 53 33 -3.9 25
17:15 1022 30.18 851 25.13 11.4 52.4 34 -3.9 25.1
17:20 1022 30.18 851 25.13 11.1 52 35 -3.5 25.6
17:25 1022 30.18 851 25.13 11 51.9 34 -4 24.8
17:30 1022 30.18 851 25.13 11.3 52.3 33 -4.2 24.4
17:35 1022 30.18 851 25.13 11.7 53 33 -4.2 24.5
17:40 1022 30.18 851 25.13 11.9 53.4 32 -4.2 24.4
17:45 1022 30.18 851 25.13 12.1 53.7 32 -4.1 24.6
17:50 1022 30.18 851 25.13 12.1 53.9 31 -4.3 24.2
17:55 1022 30.18 851 25.13 12.4 54.3 30 -4.8 23.3
18:00 1022 30.18 851 25.13 12.7 54.8 29 -4.7 23.6
18:05 1022 30.18 851 25.13 12.7 54.9 29 -4.8 23.3
18:10 1022 30.18 851 25.13 12.7 54.9 29 -4.8 23.3
18:15 1022 30.18 851 25.13 12.7 54.9 29 -4.6 23.6
18:20 1022 30.18 851 25.13 12.7 54.8 29 -4.7 23.6
18:25 1022 30.18 851 25.13 12.6 54.6 30 -4.6 23.8
18:30 1022 30.18 851 25.13 12.4 54.3 30 -4.5 23.8
18:35 1022 30.18 851 25.13 12.3 54.1 30 -4.6 23.8
18:40 1022 30.18 851 25.13 12.1 53.9 31 -4.4 24
18:45 1022 30.18 851 25.13 12 53.7 31 -4.4 24
18:50 1022 30.18 851 25.13 11.9 53.5 31 -4.5 24
18:55 1022 30.18 851 25.13 11.8 53.3 32 -4.3 24.3
19:00 1022 30.18 851 25.13 11.6 52.9 32 -4.3 24.3
19:05 1022 30.18 851 25.13 11.5 52.7 32 -4.4 24.1
19:10 1022 30.18 851 25.13 11.5 52.6 33 -4.4 24.1
19:15 1022 30.18 851 25.13 11.4 52.5 33 -4.3 24.3
19:20 1022 30.18 851 25.13 11.3 52.3 33 -4.2 24.5
19:25 1022 30.18 851 25.13 11.2 52.1 33 -4.3 24.3
19:30 1022 30.18 851 25.13 11 51.9 35 -3.9 24.9
19:35 1022 30.18 851 25.13 10.8 51.4 34 -4.2 24.4
19:40 1022 30.18 851 25.13 10.8 51.4 35 -4.2 24.5
19:45 1022 30.18 851 25.13 10.7 51.3 35 -4.1 24.5
19:50 1022 30.18 851 25.13 10.6 51.1 35 -4.1 24.7
19:55 1022 30.18 851 25.13 10.3 50.5 36 -4.1 24.7
20:00 1022 30.18 851 25.13 10.3 50.6 36 -4 24.8
20:05 1022 30.18 851 25.13 10.2 50.3 37 -3.7 25.3
20:10 1022 30.18 851 25.13 10 50 37 -4 24.9
20:15 1022 30.18 851 25.13 10.2 50.4 35 -4.4 24
20:20 1022 30.18 851 25.13 10.6 51 35 -4.2 24.4
20:25 1022 30.18 851 25.13 10.5 50.9 36 -4 24.8
20:30 1022 30.18 851 25.13 10.3 50.5 36 -4 24.9
20:35 1022 30.18 851 25.13 10.2 50.3 37 -3.9 25
20:40 1022 30.18 851 25.13 10 50 38 -3.7 25.4
20:45 1022 30.18 851 25.13 9.7 49.5 39 -3.7 25.4
20:50 1022 30.18 851 25.13 9.5 49.1 39 -3.7 25.3
20:55 1022 30.18 851 25.13 9.5 49.2 39 -3.7 25.3
21:00 1022 30.18 851 25.13 9.8 49.6 38 -3.9 25
21:05 1022 30.18 851 25.13 9.9 49.8 38 -3.7 25.4
21:10 1022 30.18 851 25.13 10.1 50.2 35 -4.4 24
21:15 1022 30.18 851 25.13 10.5 50.9 35 -4.4 24
21:20 1022 30.18 851 25.13 10.6 51.1 35 -4.2 24.4
21:25 1022 30.18 851 25.13 10.7 51.3 34 -4.4 24.1
21:30 1022 30.18 851 25.13 10.6 51.1 35 -4.3 24.3
21:35 1022 30.18 851 25.13 10.6 51 35 -4.4 24.1
21:40 1022 30.18 852 25.16 10.5 50.9 35 -4.4 24.1
21:45 1022 30.18 852 25.16 10.5 50.9 35 -4.2 24.5
21:50 1022 30.18 852 25.16 10.4 50.6 36 -4.2 24.4
21:55 1022 30.18 852 25.16 10.2 50.4 37 -3.7 25.4
22:00 1022 30.18 852 25.16 9.8 49.6 39 -3.6 25.5
22:05 1022 30.18 852 25.16 9 48.2 40 -3.8 25.2
22:10 1023 30.21 852 25.16 8.8 47.9 41 -3.7 25.4
22:15 1023 30.21 852 25.16 8.8 47.9 40 -4.1 24.6
22:20 1023 30.21 852 25.16 9.2 48.5 39 -4.1 24.6
22:25 1023 30.21 852 25.16 9 48.3 40 -3.9 24.9
22:30 1023 30.21 852 25.16 8.8 47.8 42 -3.5 25.7
22:35 1023 30.21 852 25.16 8.4 47.1 42 -3.9 25
22:40 1023 30.21 852 25.16 8.4 47.1 42 -3.8 25.2
22:45 1023 30.21 852 25.16 8.8 47.8 41 -3.8 25.2
22:50 1023 30.21 852 25.16 8.6 47.5 41 -3.9 24.9
22:55 1023 30.21 852 25.16 8.5 47.3 43 -3.5 25.7
23:00 1023 30.21 852 25.16 8.1 46.5 44 -3.5 25.7
23:05 1023 30.21 852 25.16 7.9 46.2 43 -3.8 25.2
23:10 1023 30.21 852 25.16 7.8 46 43 -3.8 25.1
23:15 1023 30.21 852 25.16 7.5 45.5 47 -3 26.6
23:20 1023 30.21 852 25.16 6.7 44 50 -3.1 26.3
23:25 1023 30.21 852 25.16 6.2 43.2 51 -3 26.5
23:30 1023 30.21 852 25.16 5.9 42.7 52 -3.2 26.2
23:35 1023 30.21 852 25.16 5.9 42.7 51 -3.4 25.9
23:40 1023 30.21 852 25.16 6.2 43.1 50 -3.5 25.8
23:45 1023 30.21 852 25.16 6.1 42.9 50 -3.4 25.8
23:50 1023 30.21 852 25.16 6 42.8 51 -3.5 25.7
23:55 1023 30.21 852 25.16 6.1 42.9 49 -3.8 25.2
24:00 1023 30.21 852 25.16 6.3 43.4 48 -3.8 25.2